sensor_id;sensor_type;location;lat;lon;timestamp;temperature;humidity
49829;DHT22;35723;51.194;5.112;2023-05-07T00:01:56;17.00;99.90
49829;DHT22;35723;51.194;5.112;2023-05-07T00:04:22;17.00;99.90
49829;DHT22;35723;51.194;5.112;2023-05-07T00:06:48;17.00;99.90
49829;DHT22;35723;51.194;5.112;2023-05-07T00:09:13;17.00;99.90
49829;DHT22;35723;51.194;5.112;2023-05-07T00:11:39;16.90;99.90
49829;DHT22;35723;51.194;5.112;2023-05-07T00:14:05;16.90;99.90
49829;DHT22;35723;51.194;5.112;2023-05-07T00:16:30;16.90;99.90
49829;DHT22;35723;51.194;5.112;2023-05-07T00:18:56;16.90;99.90
49829;DHT22;35723;51.194;5.112;2023-05-07T00:21:22;16.90;99.90
49829;DHT22;35723;51.194;5.112;2023-05-07T00:23:47;17.00;99.90
49829;DHT22;35723;51.194;5.112;2023-05-07T00:26:13;17.00;99.90
49829;DHT22;35723;51.194;5.112;2023-05-07T00:28:38;17.00;99.90
49829;DHT22;35723;51.194;5.112;2023-05-07T00:31:04;17.00;99.90
49829;DHT22;35723;51.194;5.112;2023-05-07T00:33:30;17.00;99.90
49829;DHT22;35723;51.194;5.112;2023-05-07T00:35:56;17.00;99.90
49829;DHT22;35723;51.194;5.112;2023-05-07T00:38:21;17.00;99.90
49829;DHT22;35723;51.194;5.112;2023-05-07T00:40:47;17.00;99.90
49829;DHT22;35723;51.194;5.112;2023-05-07T00:43:13;17.00;99.90
49829;DHT22;35723;51.194;5.112;2023-05-07T00:45:39;17.10;99.90
49829;DHT22;35723;51.194;5.112;2023-05-07T00:48:04;17.00;99.90
49829;DHT22;35723;51.194;5.112;2023-05-07T00:50:31;17.10;99.90
49829;DHT22;35723;51.194;5.112;2023-05-07T00:52:58;17.10;99.90
49829;DHT22;35723;51.194;5.112;2023-05-07T00:55:25;17.10;99.90
49829;DHT22;35723;51.194;5.112;2023-05-07T00:57:51;17.00;99.90
49829;DHT22;35723;51.194;5.112;2023-05-07T01:00:17;17.10;99.90
49829;DHT22;35723;51.194;5.112;2023-05-07T01:02:44;17.10;99.90
49829;DHT22;35723;51.194;5.112;2023-05-07T01:05:13;17.10;99.90
49829;DHT22;35723;51.194;5.112;2023-05-07T01:07:40;17.10;99.90
49829;DHT22;35723;51.194;5.112;2023-05-07T01:10:08;17.00;99.90
49829;DHT22;35723;51.194;5.112;2023-05-07T01:12:36;17.00;99.90
49829;DHT22;35723;51.194;5.112;2023-05-07T01:15:03;17.00;99.90
49829;DHT22;35723;51.194;5.112;2023-05-07T01:17:29;17.00;99.90
49829;DHT22;35723;51.194;5.112;2023-05-07T01:19:55;17.00;99.90
49829;DHT22;35723;51.194;5.112;2023-05-07T01:22:32;17.10;99.90
49829;DHT22;35723;51.194;5.112;2023-05-07T01:24:58;17.10;99.90
49829;DHT22;35723;51.194;5.112;2023-05-07T01:27:25;17.10;99.90
49829;DHT22;35723;51.194;5.112;2023-05-07T01:29:51;17.10;99.90
49829;DHT22;35723;51.194;5.112;2023-05-07T01:32:18;17.00;99.90
49829;DHT22;35723;51.194;5.112;2023-05-07T01:34:48;17.00;99.90
49829;DHT22;35723;51.194;5.112;2023-05-07T01:37:14;17.00;99.90
49829;DHT22;35723;51.194;5.112;2023-05-07T01:39:40;17.00;99.90
49829;DHT22;35723;51.194;5.112;2023-05-07T01:42:06;17.00;99.90
49829;DHT22;35723;51.194;5.112;2023-05-07T01:44:32;17.00;99.90
49829;DHT22;35723;51.194;5.112;2023-05-07T01:46:58;17.00;99.90
49829;DHT22;35723;51.194;5.112;2023-05-07T01:49:25;17.00;99.90
49829;DHT22;35723;51.194;5.112;2023-05-07T01:51:51;17.00;99.90
49829;DHT22;35723;51.194;5.112;2023-05-07T01:54:17;17.00;99.90
49829;DHT22;35723;51.194;5.112;2023-05-07T01:56:42;17.10;99.90
49829;DHT22;35723;51.194;5.112;2023-05-07T01:59:08;17.10;99.90
49829;DHT22;35723;51.194;5.112;2023-05-07T02:01:34;17.00;99.90
49829;DHT22;35723;51.194;5.112;2023-05-07T02:04:00;17.00;99.90
49829;DHT22;35723;51.194;5.112;2023-05-07T02:06:25;17.10;99.90
49829;DHT22;35723;51.194;5.112;2023-05-07T02:08:51;17.10;99.90
49829;DHT22;35723;51.194;5.112;2023-05-07T02:11:17;17.10;99.90
49829;DHT22;35723;51.194;5.112;2023-05-07T02:13:42;17.10;99.90
49829;DHT22;35723;51.194;5.112;2023-05-07T02:16:08;17.10;99.90
49829;DHT22;35723;51.194;5.112;2023-05-07T02:18:33;17.10;99.90
49829;DHT22;35723;51.194;5.112;2023-05-07T02:20:59;17.10;99.90
49829;DHT22;35723;51.194;5.112;2023-05-07T02:23:25;17.10;99.90
49829;DHT22;35723;51.194;5.112;2023-05-07T02:25:51;17.10;99.90
49829;DHT22;35723;51.194;5.112;2023-05-07T02:28:16;17.10;99.90
49829;DHT22;35723;51.194;5.112;2023-05-07T02:30:42;17.10;99.90
49829;DHT22;35723;51.194;5.112;2023-05-07T02:33:08;17.10;99.90
49829;DHT22;35723;51.194;5.112;2023-05-07T02:35:34;17.10;99.90
49829;DHT22;35723;51.194;5.112;2023-05-07T02:38:00;17.10;99.90
49829;DHT22;35723;51.194;5.112;2023-05-07T02:40:25;17.10;99.90
49829;DHT22;35723;51.194;5.112;2023-05-07T02:42:51;17.10;99.90
49829;DHT22;35723;51.194;5.112;2023-05-07T02:45:16;17.10;99.90
49829;DHT22;35723;51.194;5.112;2023-05-07T02:47:42;17.10;99.90
49829;DHT22;35723;51.194;5.112;2023-05-07T02:50:08;17.00;99.90
49829;DHT22;35723;51.194;5.112;2023-05-07T02:52:33;17.00;99.90
49829;DHT22;35723;51.194;5.112;2023-05-07T02:54:59;17.10;99.90
49829;DHT22;35723;51.194;5.112;2023-05-07T02:57:24;17.10;99.90
49829;DHT22;35723;51.194;5.112;2023-05-07T02:59:50;17.00;99.90
49829;DHT22;35723;51.194;5.112;2023-05-07T03:02:16;17.00;99.90
49829;DHT22;35723;51.194;5.112;2023-05-07T03:04:41;17.00;99.90
49829;DHT22;35723;51.194;5.112;2023-05-07T03:07:07;17.00;99.90
49829;DHT22;35723;51.194;5.112;2023-05-07T03:09:33;17.00;99.90
49829;DHT22;35723;51.194;5.112;2023-05-07T03:11:58;17.00;99.90
49829;DHT22;35723;51.194;5.112;2023-05-07T03:14:24;17.00;99.90
49829;DHT22;35723;51.194;5.112;2023-05-07T03:16:50;17.00;99.90
49829;DHT22;35723;51.194;5.112;2023-05-07T03:19:16;17.00;99.90
49829;DHT22;35723;51.194;5.112;2023-05-07T03:21:42;17.00;99.90
49829;DHT22;35723;51.194;5.112;2023-05-07T03:24:07;17.00;99.90
49829;DHT22;35723;51.194;5.112;2023-05-07T03:26:33;16.90;99.90
49829;DHT22;35723;51.194;5.112;2023-05-07T03:28:59;16.90;99.90
49829;DHT22;35723;51.194;5.112;2023-05-07T03:31:24;16.90;99.90
49829;DHT22;35723;51.194;5.112;2023-05-07T03:33:52;16.90;99.90
49829;DHT22;35723;51.194;5.112;2023-05-07T03:36:18;16.90;99.90
49829;DHT22;35723;51.194;5.112;2023-05-07T03:38:44;16.90;99.90
49829;DHT22;35723;51.194;5.112;2023-05-07T03:41:09;16.90;99.90
49829;DHT22;35723;51.194;5.112;2023-05-07T03:43:35;16.90;99.90
49829;DHT22;35723;51.194;5.112;2023-05-07T03:46:01;16.90;99.90
49829;DHT22;35723;51.194;5.112;2023-05-07T03:48:26;16.80;99.90
49829;DHT22;35723;51.194;5.112;2023-05-07T03:50:52;16.80;99.90
49829;DHT22;35723;51.194;5.112;2023-05-07T03:53:18;16.80;99.90
49829;DHT22;35723;51.194;5.112;2023-05-07T03:55:43;16.80;99.90
49829;DHT22;35723;51.194;5.112;2023-05-07T03:58:09;16.80;99.90
49829;DHT22;35723;51.194;5.112;2023-05-07T04:00:35;16.80;99.90
49829;DHT22;35723;51.194;5.112;2023-05-07T04:03:04;16.80;99.90
49829;DHT22;35723;51.194;5.112;2023-05-07T04:05:30;16.80;99.90
49829;DHT22;35723;51.194;5.112;2023-05-07T04:08:01;16.90;99.90
49829;DHT22;35723;51.194;5.112;2023-05-07T04:10:28;16.80;99.90
49829;DHT22;35723;51.194;5.112;2023-05-07T04:12:54;16.80;99.90
49829;DHT22;35723;51.194;5.112;2023-05-07T04:15:20;16.80;99.90
49829;DHT22;35723;51.194;5.112;2023-05-07T04:17:46;16.80;99.90
49829;DHT22;35723;51.194;5.112;2023-05-07T04:20:15;16.80;99.90
49829;DHT22;35723;51.194;5.112;2023-05-07T04:22:42;16.80;99.90
49829;DHT22;35723;51.194;5.112;2023-05-07T04:25:08;16.80;99.90
49829;DHT22;35723;51.194;5.112;2023-05-07T04:27:37;16.80;99.90
49829;DHT22;35723;51.194;5.112;2023-05-07T04:30:03;16.80;99.90
49829;DHT22;35723;51.194;5.112;2023-05-07T04:32:29;16.80;99.90
49829;DHT22;35723;51.194;5.112;2023-05-07T04:34:56;16.80;99.90
49829;DHT22;35723;51.194;5.112;2023-05-07T04:37:22;16.80;99.90
49829;DHT22;35723;51.194;5.112;2023-05-07T04:39:47;16.80;99.90
49829;DHT22;35723;51.194;5.112;2023-05-07T04:42:17;16.80;99.90
49829;DHT22;35723;51.194;5.112;2023-05-07T04:44:44;16.80;99.90
49829;DHT22;35723;51.194;5.112;2023-05-07T04:47:10;16.80;99.90
49829;DHT22;35723;51.194;5.112;2023-05-07T04:49:37;16.80;99.90
49829;DHT22;35723;51.194;5.112;2023-05-07T04:52:03;16.80;99.90
49829;DHT22;35723;51.194;5.112;2023-05-07T04:54:29;16.80;99.90
49829;DHT22;35723;51.194;5.112;2023-05-07T04:56:55;16.80;99.90
49829;DHT22;35723;51.194;5.112;2023-05-07T04:59:21;16.80;99.90
49829;DHT22;35723;51.194;5.112;2023-05-07T05:01:47;16.80;99.90
49829;DHT22;35723;51.194;5.112;2023-05-07T05:04:12;16.90;99.90
49829;DHT22;35723;51.194;5.112;2023-05-07T05:06:38;16.90;99.90
49829;DHT22;35723;51.194;5.112;2023-05-07T05:09:04;16.80;99.90
49829;DHT22;35723;51.194;5.112;2023-05-07T05:11:30;16.80;99.90
49829;DHT22;35723;51.194;5.112;2023-05-07T05:13:56;16.80;99.90
49829;DHT22;35723;51.194;5.112;2023-05-07T05:16:22;16.80;99.90
49829;DHT22;35723;51.194;5.112;2023-05-07T05:18:47;16.80;99.90
49829;DHT22;35723;51.194;5.112;2023-05-07T05:21:13;16.90;99.90
49829;DHT22;35723;51.194;5.112;2023-05-07T05:23:39;16.90;99.90
49829;DHT22;35723;51.194;5.112;2023-05-07T05:26:04;16.90;99.90
49829;DHT22;35723;51.194;5.112;2023-05-07T05:28:30;16.90;99.90
49829;DHT22;35723;51.194;5.112;2023-05-07T05:30:56;16.90;99.90
49829;DHT22;35723;51.194;5.112;2023-05-07T05:33:21;16.90;99.90
49829;DHT22;35723;51.194;5.112;2023-05-07T05:35:47;16.90;99.90
49829;DHT22;35723;51.194;5.112;2023-05-07T05:38:13;16.90;99.90
49829;DHT22;35723;51.194;5.112;2023-05-07T05:40:39;16.90;99.90
49829;DHT22;35723;51.194;5.112;2023-05-07T05:43:05;16.90;99.90
49829;DHT22;35723;51.194;5.112;2023-05-07T05:45:31;17.00;99.90
49829;DHT22;35723;51.194;5.112;2023-05-07T05:47:57;17.00;99.90
49829;DHT22;35723;51.194;5.112;2023-05-07T05:50:23;17.00;99.90
49829;DHT22;35723;51.194;5.112;2023-05-07T05:52:48;17.00;99.90
49829;DHT22;35723;51.194;5.112;2023-05-07T05:55:14;17.00;99.90
49829;DHT22;35723;51.194;5.112;2023-05-07T05:57:40;17.00;99.90
49829;DHT22;35723;51.194;5.112;2023-05-07T06:00:06;17.00;99.90
49829;DHT22;35723;51.194;5.112;2023-05-07T06:02:33;17.00;99.90
49829;DHT22;35723;51.194;5.112;2023-05-07T06:04:59;17.10;99.90
49829;DHT22;35723;51.194;5.112;2023-05-07T06:07:25;17.10;99.90
49829;DHT22;35723;51.194;5.112;2023-05-07T06:09:50;17.00;99.90
49829;DHT22;35723;51.194;5.112;2023-05-07T06:12:16;17.10;99.90
49829;DHT22;35723;51.194;5.112;2023-05-07T06:14:44;17.10;99.90
49829;DHT22;35723;51.194;5.112;2023-05-07T06:17:10;17.20;99.90
49829;DHT22;35723;51.194;5.112;2023-05-07T06:19:36;17.10;99.90
49829;DHT22;35723;51.194;5.112;2023-05-07T06:22:01;17.20;99.90
49829;DHT22;35723;51.194;5.112;2023-05-07T06:24:28;17.20;99.90
49829;DHT22;35723;51.194;5.112;2023-05-07T06:26:53;17.20;99.90
49829;DHT22;35723;51.194;5.112;2023-05-07T06:29:19;17.20;99.90
49829;DHT22;35723;51.194;5.112;2023-05-07T06:31:45;17.20;99.90
49829;DHT22;35723;51.194;5.112;2023-05-07T06:34:10;17.20;99.90
49829;DHT22;35723;51.194;5.112;2023-05-07T06:36:40;17.30;99.90
49829;DHT22;35723;51.194;5.112;2023-05-07T06:39:06;17.30;99.90
49829;DHT22;35723;51.194;5.112;2023-05-07T06:41:31;17.30;99.90
49829;DHT22;35723;51.194;5.112;2023-05-07T06:43:57;17.30;99.90
49829;DHT22;35723;51.194;5.112;2023-05-07T06:46:22;17.30;99.90
49829;DHT22;35723;51.194;5.112;2023-05-07T06:48:48;17.40;99.90
49829;DHT22;35723;51.194;5.112;2023-05-07T06:51:14;17.40;99.90
49829;DHT22;35723;51.194;5.112;2023-05-07T06:53:39;17.40;99.90
49829;DHT22;35723;51.194;5.112;2023-05-07T06:56:06;17.40;99.90
49829;DHT22;35723;51.194;5.112;2023-05-07T06:58:32;17.50;99.90
49829;DHT22;35723;51.194;5.112;2023-05-07T07:00:57;17.50;99.90
49829;DHT22;35723;51.194;5.112;2023-05-07T07:03:23;17.50;99.90
49829;DHT22;35723;51.194;5.112;2023-05-07T07:05:52;17.60;99.90
49829;DHT22;35723;51.194;5.112;2023-05-07T07:08:18;17.70;99.90
49829;DHT22;35723;51.194;5.112;2023-05-07T07:10:46;17.70;99.90
49829;DHT22;35723;51.194;5.112;2023-05-07T07:13:12;17.70;99.90
49829;DHT22;35723;51.194;5.112;2023-05-07T07:15:38;17.80;99.90
49829;DHT22;35723;51.194;5.112;2023-05-07T07:18:04;17.80;99.90
49829;DHT22;35723;51.194;5.112;2023-05-07T07:20:30;17.80;99.90
49829;DHT22;35723;51.194;5.112;2023-05-07T07:22:55;17.80;99.90
49829;DHT22;35723;51.194;5.112;2023-05-07T07:25:21;17.90;99.90
49829;DHT22;35723;51.194;5.112;2023-05-07T07:27:47;17.90;99.90
49829;DHT22;35723;51.194;5.112;2023-05-07T07:30:12;18.00;99.90
49829;DHT22;35723;51.194;5.112;2023-05-07T07:32:38;18.00;99.90
49829;DHT22;35723;51.194;5.112;2023-05-07T07:35:04;18.00;99.90
49829;DHT22;35723;51.194;5.112;2023-05-07T07:37:30;18.00;99.90
49829;DHT22;35723;51.194;5.112;2023-05-07T07:39:56;18.00;99.90
49829;DHT22;35723;51.194;5.112;2023-05-07T07:42:21;18.00;99.90
49829;DHT22;35723;51.194;5.112;2023-05-07T07:44:47;18.10;99.90
49829;DHT22;35723;51.194;5.112;2023-05-07T07:47:13;18.10;99.90
49829;DHT22;35723;51.194;5.112;2023-05-07T07:49:39;18.10;99.90
49829;DHT22;35723;51.194;5.112;2023-05-07T07:52:05;18.20;99.90
49829;DHT22;35723;51.194;5.112;2023-05-07T07:54:30;18.10;99.90
49829;DHT22;35723;51.194;5.112;2023-05-07T07:56:56;18.20;99.90
49829;DHT22;35723;51.194;5.112;2023-05-07T07:59:22;18.20;99.90
49829;DHT22;35723;51.194;5.112;2023-05-07T08:01:47;18.20;99.90
49829;DHT22;35723;51.194;5.112;2023-05-07T08:04:15;18.20;99.90
49829;DHT22;35723;51.194;5.112;2023-05-07T08:06:41;18.20;99.90
49829;DHT22;35723;51.194;5.112;2023-05-07T08:09:07;18.20;99.90
49829;DHT22;35723;51.194;5.112;2023-05-07T08:11:34;18.30;99.90
49829;DHT22;35723;51.194;5.112;2023-05-07T08:13:59;18.30;99.90
49829;DHT22;35723;51.194;5.112;2023-05-07T08:16:25;18.30;99.90
49829;DHT22;35723;51.194;5.112;2023-05-07T08:18:51;18.40;99.90
49829;DHT22;35723;51.194;5.112;2023-05-07T08:21:17;18.40;99.90
49829;DHT22;35723;51.194;5.112;2023-05-07T08:23:42;18.50;99.90
49829;DHT22;35723;51.194;5.112;2023-05-07T08:26:08;18.50;99.90
49829;DHT22;35723;51.194;5.112;2023-05-07T08:28:34;18.60;99.90
49829;DHT22;35723;51.194;5.112;2023-05-07T08:31:00;18.60;99.90
49829;DHT22;35723;51.194;5.112;2023-05-07T08:33:26;18.50;99.90
49829;DHT22;35723;51.194;5.112;2023-05-07T08:35:52;18.60;99.90
49829;DHT22;35723;51.194;5.112;2023-05-07T08:38:18;18.60;99.90
49829;DHT22;35723;51.194;5.112;2023-05-07T08:40:43;18.60;99.90
49829;DHT22;35723;51.194;5.112;2023-05-07T08:43:12;18.60;99.90
49829;DHT22;35723;51.194;5.112;2023-05-07T08:45:40;18.70;99.90
49829;DHT22;35723;51.194;5.112;2023-05-07T08:48:09;18.70;99.90
49829;DHT22;35723;51.194;5.112;2023-05-07T08:50:39;18.80;99.90
49829;DHT22;35723;51.194;5.112;2023-05-07T08:53:05;18.80;99.90
49829;DHT22;35723;51.194;5.112;2023-05-07T08:55:31;18.90;99.90
49829;DHT22;35723;51.194;5.112;2023-05-07T08:57:58;19.00;99.90
49829;DHT22;35723;51.194;5.112;2023-05-07T09:00:24;19.00;99.90
49829;DHT22;35723;51.194;5.112;2023-05-07T09:02:51;19.00;99.90
49829;DHT22;35723;51.194;5.112;2023-05-07T09:05:17;19.10;99.90
49829;DHT22;35723;51.194;5.112;2023-05-07T09:07:43;19.00;99.90
49829;DHT22;35723;51.194;5.112;2023-05-07T09:10:09;19.00;99.90
49829;DHT22;35723;51.194;5.112;2023-05-07T09:12:34;19.10;99.90
49829;DHT22;35723;51.194;5.112;2023-05-07T09:15:01;19.10;99.90
49829;DHT22;35723;51.194;5.112;2023-05-07T09:17:28;19.20;99.90
49829;DHT22;35723;51.194;5.112;2023-05-07T09:19:54;19.20;99.90
49829;DHT22;35723;51.194;5.112;2023-05-07T09:22:20;19.30;99.90
49829;DHT22;35723;51.194;5.112;2023-05-07T09:24:49;19.40;99.90
49829;DHT22;35723;51.194;5.112;2023-05-07T09:27:15;19.40;99.90
49829;DHT22;35723;51.194;5.112;2023-05-07T09:29:41;19.50;99.90
49829;DHT22;35723;51.194;5.112;2023-05-07T09:32:08;19.60;99.90
49829;DHT22;35723;51.194;5.112;2023-05-07T09:34:34;19.60;99.90
49829;DHT22;35723;51.194;5.112;2023-05-07T09:37:02;19.60;99.90
49829;DHT22;35723;51.194;5.112;2023-05-07T09:39:39;19.70;99.90
49829;DHT22;35723;51.194;5.112;2023-05-07T09:42:06;19.80;99.90
49829;DHT22;35723;51.194;5.112;2023-05-07T09:44:32;19.80;99.90
49829;DHT22;35723;51.194;5.112;2023-05-07T09:46:59;19.80;99.90
49829;DHT22;35723;51.194;5.112;2023-05-07T09:49:29;19.90;99.90
49829;DHT22;35723;51.194;5.112;2023-05-07T09:51:56;20.00;99.90
49829;DHT22;35723;51.194;5.112;2023-05-07T09:54:24;20.00;99.90
49829;DHT22;35723;51.194;5.112;2023-05-07T09:56:52;20.10;99.90
49829;DHT22;35723;51.194;5.112;2023-05-07T09:59:19;20.10;99.90
49829;DHT22;35723;51.194;5.112;2023-05-07T10:01:45;20.20;99.90
49829;DHT22;35723;51.194;5.112;2023-05-07T10:04:12;20.20;99.90
49829;DHT22;35723;51.194;5.112;2023-05-07T10:06:38;20.30;99.90
49829;DHT22;35723;51.194;5.112;2023-05-07T10:09:04;20.30;99.90
49829;DHT22;35723;51.194;5.112;2023-05-07T10:11:36;20.30;99.90
49829;DHT22;35723;51.194;5.112;2023-05-07T10:14:03;20.30;99.90
49829;DHT22;35723;51.194;5.112;2023-05-07T10:16:34;20.30;99.90
49829;DHT22;35723;51.194;5.112;2023-05-07T10:19:05;20.30;99.90
49829;DHT22;35723;51.194;5.112;2023-05-07T10:21:36;20.30;99.90
49829;DHT22;35723;51.194;5.112;2023-05-07T10:24:08;20.40;99.90
49829;DHT22;35723;51.194;5.112;2023-05-07T10:26:45;20.50;99.90
49829;DHT22;35723;51.194;5.112;2023-05-07T10:29:24;20.50;99.90
49829;DHT22;35723;51.194;5.112;2023-05-07T10:34:55;20.50;99.90
49829;DHT22;35723;51.194;5.112;2023-05-07T10:37:21;20.40;99.90
49829;DHT22;35723;51.194;5.112;2023-05-07T10:39:47;20.40;99.90
49829;DHT22;35723;51.194;5.112;2023-05-07T10:42:14;20.40;99.90
49829;DHT22;35723;51.194;5.112;2023-05-07T10:44:40;20.40;99.90
49829;DHT22;35723;51.194;5.112;2023-05-07T10:47:14;20.40;99.90
49829;DHT22;35723;51.194;5.112;2023-05-07T10:52:15;20.30;99.90
49829;DHT22;35723;51.194;5.112;2023-05-07T10:54:45;20.30;99.90
49829;DHT22;35723;51.194;5.112;2023-05-07T10:57:36;20.20;99.90
49829;DHT22;35723;51.194;5.112;2023-05-07T11:00:03;20.30;99.90
49829;DHT22;35723;51.194;5.112;2023-05-07T11:05:29;20.20;99.90
49829;DHT22;35723;51.194;5.112;2023-05-07T11:10:21;20.10;99.90
49829;DHT22;35723;51.194;5.112;2023-05-07T11:12:51;20.10;99.90
49829;DHT22;35723;51.194;5.112;2023-05-07T11:15:37;20.10;99.90
49829;DHT22;35723;51.194;5.112;2023-05-07T11:18:03;20.10;99.90
49829;DHT22;35723;51.194;5.112;2023-05-07T11:26:13;20.20;99.90
49829;DHT22;35723;51.194;5.112;2023-05-07T11:28:43;20.10;99.90
49829;DHT22;35723;51.194;5.112;2023-05-07T11:31:10;20.00;99.90
49829;DHT22;35723;51.194;5.112;2023-05-07T11:33:37;20.00;99.90
49829;DHT22;35723;51.194;5.112;2023-05-07T11:36:03;20.00;99.90
49829;DHT22;35723;51.194;5.112;2023-05-07T11:38:36;19.90;99.90
49829;DHT22;35723;51.194;5.112;2023-05-07T11:41:02;20.00;99.90
49829;DHT22;35723;51.194;5.112;2023-05-07T11:43:30;20.00;99.90
49829;DHT22;35723;51.194;5.112;2023-05-07T11:46:06;20.00;99.90
49829;DHT22;35723;51.194;5.112;2023-05-07T11:48:32;19.90;99.90
49829;DHT22;35723;51.194;5.112;2023-05-07T11:53:28;19.70;99.90
49829;DHT22;35723;51.194;5.112;2023-05-07T11:56:08;19.70;99.90
49829;DHT22;35723;51.194;5.112;2023-05-07T11:58:34;19.80;99.90
49829;DHT22;35723;51.194;5.112;2023-05-07T12:01:00;19.70;99.90
49829;DHT22;35723;51.194;5.112;2023-05-07T12:03:26;19.70;99.90
49829;DHT22;35723;51.194;5.112;2023-05-07T12:05:52;19.60;99.90
49829;DHT22;35723;51.194;5.112;2023-05-07T12:08:18;19.60;99.90
49829;DHT22;35723;51.194;5.112;2023-05-07T12:10:45;19.60;99.90
49829;DHT22;35723;51.194;5.112;2023-05-07T12:13:21;19.60;99.90
49829;DHT22;35723;51.194;5.112;2023-05-07T12:15:53;19.60;99.90
49829;DHT22;35723;51.194;5.112;2023-05-07T12:18:20;19.60;99.90
49829;DHT22;35723;51.194;5.112;2023-05-07T12:20:46;19.60;99.90
49829;DHT22;35723;51.194;5.112;2023-05-07T12:23:13;19.60;99.90
49829;DHT22;35723;51.194;5.112;2023-05-07T12:25:39;19.50;99.90
49829;DHT22;35723;51.194;5.112;2023-05-07T12:28:07;19.60;99.90
49829;DHT22;35723;51.194;5.112;2023-05-07T12:30:40;19.60;99.90
49829;DHT22;35723;51.194;5.112;2023-05-07T12:33:06;19.50;99.90
49829;DHT22;35723;51.194;5.112;2023-05-07T12:35:40;19.50;99.90
49829;DHT22;35723;51.194;5.112;2023-05-07T12:38:24;19.60;99.90
49829;DHT22;35723;51.194;5.112;2023-05-07T12:40:53;19.60;99.90
49829;DHT22;35723;51.194;5.112;2023-05-07T12:43:20;19.60;99.90
49829;DHT22;35723;51.194;5.112;2023-05-07T12:45:50;19.60;99.90
49829;DHT22;35723;51.194;5.112;2023-05-07T12:48:16;19.70;99.90
49829;DHT22;35723;51.194;5.112;2023-05-07T12:50:42;19.70;99.90
49829;DHT22;35723;51.194;5.112;2023-05-07T12:53:10;19.70;99.90
49829;DHT22;35723;51.194;5.112;2023-05-07T12:55:50;19.70;99.90
49829;DHT22;35723;51.194;5.112;2023-05-07T12:58:20;19.60;99.90
49829;DHT22;35723;51.194;5.112;2023-05-07T13:00:50;19.50;99.90
49829;DHT22;35723;51.194;5.112;2023-05-07T13:03:30;19.60;99.90
49829;DHT22;35723;51.194;5.112;2023-05-07T13:05:59;19.60;99.90
49829;DHT22;35723;51.194;5.112;2023-05-07T13:08:41;19.60;99.90
49829;DHT22;35723;51.194;5.112;2023-05-07T13:11:11;19.50;99.90
49829;DHT22;35723;51.194;5.112;2023-05-07T13:13:38;19.50;99.90
49829;DHT22;35723;51.194;5.112;2023-05-07T13:16:05;19.60;99.90
49829;DHT22;35723;51.194;5.112;2023-05-07T13:18:32;19.50;99.90
49829;DHT22;35723;51.194;5.112;2023-05-07T13:20:58;19.50;99.90
49829;DHT22;35723;51.194;5.112;2023-05-07T13:23:24;19.60;99.90
49829;DHT22;35723;51.194;5.112;2023-05-07T13:25:50;19.60;99.90
49829;DHT22;35723;51.194;5.112;2023-05-07T13:28:16;19.60;99.90
49829;DHT22;35723;51.194;5.112;2023-05-07T13:30:42;19.60;99.90
49829;DHT22;35723;51.194;5.112;2023-05-07T13:33:08;19.60;99.90
49829;DHT22;35723;51.194;5.112;2023-05-07T13:35:34;19.60;99.90
49829;DHT22;35723;51.194;5.112;2023-05-07T13:38:00;19.60;99.90
49829;DHT22;35723;51.194;5.112;2023-05-07T13:40:26;19.30;99.90
49829;DHT22;35723;51.194;5.112;2023-05-07T13:42:51;19.20;99.90
49829;DHT22;35723;51.194;5.112;2023-05-07T13:45:20;19.20;99.90
49829;DHT22;35723;51.194;5.112;2023-05-07T13:47:46;19.40;99.90
49829;DHT22;35723;51.194;5.112;2023-05-07T13:50:12;19.40;99.90
49829;DHT22;35723;51.194;5.112;2023-05-07T13:52:45;19.50;99.90
49829;DHT22;35723;51.194;5.112;2023-05-07T13:55:19;19.50;99.90
49829;DHT22;35723;51.194;5.112;2023-05-07T13:57:46;19.60;99.90
49829;DHT22;35723;51.194;5.112;2023-05-07T14:00:13;19.60;99.90
49829;DHT22;35723;51.194;5.112;2023-05-07T14:02:39;19.60;99.90
49829;DHT22;35723;51.194;5.112;2023-05-07T14:05:06;19.60;99.90
49829;DHT22;35723;51.194;5.112;2023-05-07T14:07:31;19.70;99.90
49829;DHT22;35723;51.194;5.112;2023-05-07T14:09:57;19.70;99.90
49829;DHT22;35723;51.194;5.112;2023-05-07T14:12:23;19.70;99.90
49829;DHT22;35723;51.194;5.112;2023-05-07T14:14:49;19.70;99.90
49829;DHT22;35723;51.194;5.112;2023-05-07T14:17:16;19.70;99.90
49829;DHT22;35723;51.194;5.112;2023-05-07T14:19:42;19.70;99.90
49829;DHT22;35723;51.194;5.112;2023-05-07T14:22:08;19.70;99.90
49829;DHT22;35723;51.194;5.112;2023-05-07T14:24:34;19.70;99.90
49829;DHT22;35723;51.194;5.112;2023-05-07T14:26:59;19.80;99.90
49829;DHT22;35723;51.194;5.112;2023-05-07T14:29:25;19.70;99.90
49829;DHT22;35723;51.194;5.112;2023-05-07T14:31:51;19.70;99.90
49829;DHT22;35723;51.194;5.112;2023-05-07T14:34:16;19.80;99.90
49829;DHT22;35723;51.194;5.112;2023-05-07T14:36:42;19.70;99.90
49829;DHT22;35723;51.194;5.112;2023-05-07T14:39:09;19.80;99.90
49829;DHT22;35723;51.194;5.112;2023-05-07T14:41:35;19.80;99.90
49829;DHT22;35723;51.194;5.112;2023-05-07T14:44:00;19.80;99.90
49829;DHT22;35723;51.194;5.112;2023-05-07T14:46:27;19.90;99.90
49829;DHT22;35723;51.194;5.112;2023-05-07T14:48:52;19.90;99.90
49829;DHT22;35723;51.194;5.112;2023-05-07T14:51:18;19.90;99.90
49829;DHT22;35723;51.194;5.112;2023-05-07T14:53:44;19.90;99.90
49829;DHT22;35723;51.194;5.112;2023-05-07T14:56:10;19.80;99.90
49829;DHT22;35723;51.194;5.112;2023-05-07T14:58:35;19.90;99.90
49829;DHT22;35723;51.194;5.112;2023-05-07T15:01:01;19.90;99.90
49829;DHT22;35723;51.194;5.112;2023-05-07T15:03:27;19.90;99.90
49829;DHT22;35723;51.194;5.112;2023-05-07T15:05:53;19.90;99.90
49829;DHT22;35723;51.194;5.112;2023-05-07T15:08:19;19.90;99.90
49829;DHT22;35723;51.194;5.112;2023-05-07T15:10:45;19.90;99.90
49829;DHT22;35723;51.194;5.112;2023-05-07T15:13:11;19.90;99.90
49829;DHT22;35723;51.194;5.112;2023-05-07T15:15:38;20.00;99.90
49829;DHT22;35723;51.194;5.112;2023-05-07T15:18:04;20.00;99.90
49829;DHT22;35723;51.194;5.112;2023-05-07T15:20:29;20.00;99.90
49829;DHT22;35723;51.194;5.112;2023-05-07T15:22:55;20.00;99.90
49829;DHT22;35723;51.194;5.112;2023-05-07T15:25:21;20.10;99.90
49829;DHT22;35723;51.194;5.112;2023-05-07T15:27:47;20.10;99.90
49829;DHT22;35723;51.194;5.112;2023-05-07T15:30:13;20.00;99.90
49829;DHT22;35723;51.194;5.112;2023-05-07T15:32:40;20.00;99.90
49829;DHT22;35723;51.194;5.112;2023-05-07T15:35:06;20.10;99.90
49829;DHT22;35723;51.194;5.112;2023-05-07T15:37:33;20.10;99.90
49829;DHT22;35723;51.194;5.112;2023-05-07T15:39:59;20.10;99.90
49829;DHT22;35723;51.194;5.112;2023-05-07T15:42:24;20.10;99.90
49829;DHT22;35723;51.194;5.112;2023-05-07T15:44:50;20.10;99.90
49829;DHT22;35723;51.194;5.112;2023-05-07T15:47:16;20.10;99.90